Hookerton, North Carolina
Current Conditions -  °F | °C
As of 4:56 PM on Sunday 23 Nov 2014 (Local Time) from KISO Reporting Station
Drizzle Drizzle  
Wind Chill: 61°   Ceiling: Unl
Heat Index: 61°   Visibility: 4mi
Dew Point: 59°   Wind: 7mph
Humidity: 94%   Direction: 120°ESE
Pressure: 30.02"   Gusts: NA
Location:  35.43°N, 77.59°W
Report Text: KISO 232156Z AUTO 12006KT 4SM -DZ SCT031 16/15 A3002 RMK AO2
Loading
Personal Weather Stations






























Interactive Weather Map New forecast layout! Learn more

10-Day Weather Forecast

Advertisements
Track Severe Weather on mobile